createdAt,value
2023-02-19T00:01:29.976Z,2.08
2023-02-19T00:03:59.579Z,3.30
2023-02-19T00:06:27.939Z,2.53
2023-02-19T00:08:54.726Z,2.45
2023-02-19T00:11:23.266Z,1.40
2023-02-19T00:13:52.715Z,2.33
2023-02-19T00:16:22.569Z,2.53
2023-02-19T00:18:49.683Z,2.78
2023-02-19T00:21:16.837Z,1.42
2023-02-19T00:23:43.592Z,1.42
2023-02-19T00:26:18.535Z,2.17
2023-02-19T00:28:46.830Z,2.78
2023-02-19T00:31:28.077Z,1.40
2023-02-19T00:33:57.407Z,2.67
2023-02-19T00:36:25.466Z,1.77
2023-02-19T00:38:52.325Z,1.75
2023-02-19T00:41:20.769Z,1.73
2023-02-19T00:44:05.652Z,1.88
2023-02-19T00:46:37.649Z,1.20
2023-02-19T00:49:06.576Z,1.35
2023-02-19T00:51:36.877Z,4.18
2023-02-19T00:54:04.465Z,1.73
2023-02-19T00:56:31.530Z,2.13
2023-02-19T00:58:58.176Z,2.45
2023-02-19T01:01:28.212Z,1.13
2023-02-19T01:03:55.260Z,1.77
2023-02-19T01:06:21.961Z,1.23
2023-02-19T01:08:48.996Z,2.97
2023-02-19T01:11:16.818Z,2.05
2023-02-19T01:13:44.005Z,2.83
2023-02-19T01:16:20.007Z,1.75
2023-02-19T01:18:48.030Z,3.00
2023-02-19T01:21:18.443Z,2.55
2023-02-19T01:23:45.329Z,1.45
2023-02-19T01:26:15.136Z,1.67
2023-02-19T01:28:42.699Z,2.22
2023-02-19T01:31:13.668Z,1.63
2023-02-19T01:33:40.411Z,2.00
2023-02-19T01:36:07.782Z,1.98
2023-02-19T01:38:34.347Z,1.42
2023-02-19T01:41:03.874Z,2.88
2023-02-19T01:43:33.687Z,2.80
2023-02-19T01:46:00.888Z,3.03
2023-02-19T01:48:38.352Z,2.85
2023-02-19T01:51:18.428Z,7.15
2023-02-19T01:53:56.596Z,3.70
2023-02-19T01:56:25.902Z,2.90
2023-02-19T01:58:53.688Z,3.83
2023-02-19T02:01:20.308Z,4.50
2023-02-19T02:03:49.541Z,2.88
2023-02-19T02:06:22.330Z,3.38
2023-02-19T02:09:16.265Z,2.92
2023-02-19T02:11:47.639Z,3.05
2023-02-19T02:14:15.226Z,1.90
2023-02-19T02:17:09.903Z,4.60
2023-02-19T02:20:07.787Z,3.57
2023-02-19T02:22:47.311Z,4.38
2023-02-19T02:25:39.899Z,2.83
2023-02-19T02:28:40.600Z,2.15
2023-02-19T02:31:14.880Z,4.57
2023-02-19T02:33:47.965Z,2.90
2023-02-19T02:36:29.132Z,3.45
2023-02-19T02:38:58.366Z,4.07
2023-02-19T02:41:25.724Z,3.15
2023-02-19T02:43:52.307Z,1.73
2023-02-19T02:46:33.032Z,1.55
2023-02-19T02:49:05.574Z,5.75
2023-02-19T02:51:46.535Z,3.25
2023-02-19T02:54:42.569Z,2.33
2023-02-19T02:57:14.926Z,1.90
2023-02-19T02:59:43.027Z,2.08
2023-02-19T03:02:18.927Z,4.00
2023-02-19T03:05:27.122Z,2.55
2023-02-19T03:07:55.986Z,4.07
2023-02-19T03:10:28.910Z,2.30
2023-02-19T03:13:17.580Z,5.07
2023-02-19T03:16:11.309Z,2.83
2023-02-19T03:19:00.718Z,4.10
2023-02-19T03:21:29.012Z,3.30
2023-02-19T03:24:15.909Z,3.92
2023-02-19T03:26:45.666Z,2.70
2023-02-19T03:29:23.099Z,3.40
2023-02-19T03:31:55.088Z,3.05
2023-02-19T03:34:31.960Z,1.98
2023-02-19T03:37:10.962Z,4.80
2023-02-19T03:39:44.368Z,2.97
2023-02-19T03:42:23.113Z,4.15
2023-02-19T03:45:18.804Z,3.13
2023-02-19T03:50:55.149Z,3.53
2023-02-19T03:53:38.257Z,5.03
2023-02-19T03:56:10.834Z,2.20
2023-02-19T03:59:06.811Z,2.60
2023-02-19T04:01:42.481Z,2.47
2023-02-19T04:04:32.020Z,4.25
2023-02-19T04:07:01.117Z,2.20
2023-02-19T04:09:37.546Z,2.80
2023-02-19T04:12:06.466Z,4.32
2023-02-19T04:14:39.502Z,2.60
2023-02-19T04:17:13.693Z,3.92
2023-02-19T04:19:42.762Z,2.72
2023-02-19T04:22:11.366Z,2.25
2023-02-19T04:24:42.959Z,2.50
2023-02-19T04:27:10.264Z,1.88
2023-02-19T04:29:39.086Z,3.03
2023-02-19T04:32:06.392Z,3.63
2023-02-19T04:34:33.358Z,4.03
2023-02-19T04:36:59.926Z,4.38
2023-02-19T04:39:26.482Z,3.78
2023-02-19T04:41:53.040Z,5.25
2023-02-19T04:44:19.703Z,5.45
2023-02-19T04:46:46.299Z,4.13
2023-02-19T04:49:12.880Z,3.05
2023-02-19T04:51:39.862Z,3.20
2023-02-19T04:54:07.011Z,1.73
2023-02-19T04:56:33.637Z,2.17
2023-02-19T04:59:00.174Z,4.45
2023-02-19T05:01:26.895Z,1.98
2023-02-19T05:03:53.509Z,1.25
2023-02-19T05:06:20.228Z,2.33
2023-02-19T05:08:46.893Z,1.90
2023-02-19T05:11:13.682Z,1.77
2023-02-19T05:13:40.918Z,1.88
2023-02-19T05:16:13.987Z,0.85
2023-02-19T05:18:41.506Z,1.30
2023-02-19T05:21:09.002Z,1.58
2023-02-19T05:23:35.726Z,1.45
2023-02-19T05:26:13.553Z,3.00
2023-02-19T05:28:40.152Z,3.53
2023-02-19T05:31:08.901Z,1.73
2023-02-19T05:33:37.536Z,3.58
2023-02-19T05:36:07.538Z,2.33
2023-02-19T05:38:34.631Z,2.60
2023-02-19T05:41:15.699Z,3.20
2023-02-19T05:43:44.111Z,3.00
2023-02-19T05:46:12.898Z,3.72
2023-02-19T05:48:39.758Z,3.45
2023-02-19T05:51:09.077Z,2.13
2023-02-19T05:53:36.505Z,2.70
2023-02-19T05:56:03.395Z,3.00
2023-02-19T05:58:30.428Z,2.35
2023-02-19T06:00:57.220Z,2.72
2023-02-19T06:03:23.961Z,3.45
2023-02-19T06:05:50.602Z,4.82
2023-02-19T06:08:17.150Z,3.92
2023-02-19T06:10:43.804Z,4.28
2023-02-19T06:13:11.067Z,4.65
2023-02-19T06:15:38.253Z,4.35
2023-02-19T06:18:04.985Z,3.78
2023-02-19T06:20:31.565Z,4.68
2023-02-19T06:22:58.225Z,3.25
2023-02-19T06:25:24.753Z,3.22
2023-02-19T06:27:51.285Z,3.08
2023-02-19T06:30:18.138Z,7.13
2023-02-19T06:32:44.705Z,3.33
2023-02-19T06:35:11.274Z,3.03
2023-02-19T06:37:37.924Z,3.03
2023-02-19T06:40:04.793Z,3.80
2023-02-19T06:42:33.311Z,8.77
2023-02-19T06:44:59.862Z,2.38
2023-02-19T06:47:26.402Z,14.50
2023-02-19T06:49:53.054Z,4.65
2023-02-19T06:52:19.637Z,3.95
2023-02-19T06:54:46.730Z,4.68
2023-02-19T06:57:13.290Z,2.85
2023-02-19T06:59:39.922Z,3.03
2023-02-19T07:02:06.559Z,3.75
2023-02-19T07:04:33.260Z,2.08
2023-02-19T07:07:00.365Z,4.50
2023-02-19T07:09:28.611Z,3.60
2023-02-19T07:11:55.314Z,2.65
2023-02-19T07:14:22.267Z,3.10
2023-02-19T07:16:49.345Z,4.13
2023-02-19T07:19:15.988Z,5.53
2023-02-19T07:21:42.736Z,5.07
2023-02-19T07:24:10.328Z,4.00
2023-02-19T07:26:37.025Z,3.47
2023-02-19T07:29:04.349Z,4.38
2023-02-19T07:31:31.049Z,3.60
2023-02-19T07:33:57.723Z,3.63
2023-02-19T07:36:24.966Z,4.97
2023-02-19T07:38:55.691Z,4.25
2023-02-19T07:41:22.795Z,3.75
2023-02-19T07:43:49.426Z,4.93
2023-02-19T07:46:16.030Z,4.95
2023-02-19T07:48:43.388Z,3.28
2023-02-19T07:51:13.734Z,2.90
2023-02-19T07:53:40.484Z,3.70
2023-02-19T07:56:08.679Z,3.80
2023-02-19T07:58:36.135Z,3.70
2023-02-19T08:01:09.021Z,7.32
2023-02-19T08:03:37.043Z,7.47
2023-02-19T08:06:04.794Z,3.35
2023-02-19T08:08:31.374Z,3.88
2023-02-19T08:11:20.913Z,3.83
2023-02-19T08:13:52.466Z,2.50
2023-02-19T08:16:29.680Z,2.60
2023-02-19T08:19:03.808Z,5.10
2023-02-19T08:21:31.000Z,3.00
2023-02-19T08:23:58.282Z,3.38
2023-02-19T08:26:24.865Z,5.45
2023-02-19T08:28:51.429Z,2.83
2023-02-19T08:31:18.059Z,3.55
2023-02-19T08:33:44.643Z,2.95
2023-02-19T08:36:11.678Z,2.03
2023-02-19T08:38:38.724Z,2.95
2023-02-19T08:41:11.406Z,2.80
2023-02-19T08:43:39.466Z,3.33
2023-02-19T08:46:16.028Z,5.57
2023-02-19T08:48:42.638Z,2.70
2023-02-19T08:51:12.045Z,4.20
2023-02-19T08:53:39.825Z,3.72
2023-02-19T08:56:12.858Z,2.78
2023-02-19T08:58:39.740Z,3.83
2023-02-19T09:01:14.995Z,3.60
2023-02-19T09:03:42.098Z,3.85
2023-02-19T09:06:13.524Z,3.42
2023-02-19T09:08:40.079Z,2.13
2023-02-19T09:11:07.471Z,1.67
2023-02-19T09:13:34.189Z,2.85
2023-02-19T09:16:05.200Z,1.98
2023-02-19T09:18:32.470Z,4.43
2023-02-19T09:21:04.783Z,2.30
2023-02-19T09:23:35.961Z,2.50
2023-02-19T09:26:06.894Z,3.25
2023-02-19T09:28:34.019Z,3.60
2023-02-19T09:31:12.139Z,3.28
2023-02-19T09:33:42.831Z,3.72
2023-02-19T09:36:09.549Z,1.90
2023-02-19T09:38:36.115Z,3.08
2023-02-19T09:41:38.147Z,2.75
2023-02-19T09:44:09.281Z,2.15
2023-02-19T09:46:41.169Z,2.38
2023-02-19T09:49:36.220Z,3.20
2023-02-19T09:52:19.957Z,3.30
2023-02-19T09:54:47.906Z,2.53
2023-02-19T09:57:23.417Z,1.98
2023-02-19T10:00:05.359Z,2.42
2023-02-19T10:02:32.420Z,3.47
2023-02-19T10:04:59.851Z,2.67
2023-02-19T10:07:38.282Z,4.03
2023-02-19T10:10:13.618Z,1.88
2023-02-19T10:12:54.091Z,1.20
2023-02-19T10:15:28.232Z,0.93
2023-02-19T10:17:55.031Z,1.13
2023-02-19T10:20:26.659Z,1.05
2023-02-19T10:23:06.790Z,1.73
2023-02-19T10:25:35.357Z,1.02
2023-02-19T10:28:04.143Z,1.05
2023-02-19T10:30:34.895Z,1.95
2023-02-19T10:33:16.639Z,7.03
2023-02-19T10:36:06.704Z,2.83
2023-02-19T10:38:39.647Z,1.30
2023-02-19T10:41:22.823Z,1.20
2023-02-19T10:44:15.420Z,1.13
2023-02-19T10:46:45.691Z,1.95
2023-02-19T10:49:28.053Z,3.63
2023-02-19T10:51:57.083Z,1.38
2023-02-19T10:54:31.550Z,3.42
2023-02-19T10:57:30.524Z,3.30
2023-02-19T11:00:22.942Z,1.55
2023-02-19T11:03:14.115Z,1.67
2023-02-19T11:05:51.711Z,5.82
2023-02-19T11:08:23.170Z,3.08
2023-02-19T11:10:50.215Z,2.80
2023-02-19T11:13:30.986Z,1.25
2023-02-19T11:15:59.023Z,2.72
2023-02-19T11:18:28.186Z,0.65
2023-02-19T11:21:00.677Z,1.75
2023-02-19T11:23:31.179Z,1.33
2023-02-19T11:26:01.616Z,1.23
2023-02-19T11:47:01.546Z,1.85
2023-02-19T11:49:40.027Z,8.07
2023-02-19T11:52:18.947Z,2.05
2023-02-19T11:55:01.226Z,2.20
2023-02-19T11:57:30.703Z,1.30
2023-02-19T12:00:16.054Z,1.20
2023-02-19T12:02:49.531Z,1.38
2023-02-19T12:05:37.968Z,0.90
2023-02-19T12:08:35.981Z,1.92
2023-02-19T12:11:19.398Z,3.85
2023-02-19T12:14:26.231Z,2.50
2023-02-19T12:17:07.416Z,2.75
2023-02-19T12:19:47.588Z,1.30
2023-02-19T12:22:20.065Z,1.85
2023-02-19T12:27:40.966Z,1.80
2023-02-19T12:30:25.255Z,2.05
2023-02-19T12:33:18.578Z,2.67
2023-02-19T12:35:55.064Z,3.13
2023-02-19T12:38:35.219Z,2.88
2023-02-19T12:41:19.889Z,3.45
2023-02-19T12:44:04.268Z,2.28
2023-02-19T12:46:43.103Z,4.07
2023-02-19T12:49:21.808Z,2.25
2023-02-19T12:51:57.710Z,1.60
2023-02-19T12:54:38.926Z,3.38
2023-02-19T12:57:10.022Z,7.85
2023-02-19T12:59:46.367Z,2.92
2023-02-19T13:02:19.750Z,0.75
2023-02-19T13:04:56.098Z,1.15
2023-02-19T13:07:38.152Z,1.33
2023-02-19T13:10:32.216Z,2.28
2023-02-19T13:13:04.087Z,1.63
2023-02-19T13:15:35.863Z,1.13
2023-02-19T13:18:05.256Z,1.85
2023-02-19T13:20:36.173Z,2.00
2023-02-19T13:23:27.618Z,2.67
2023-02-19T13:26:20.818Z,3.65
2023-02-19T13:28:59.510Z,1.75
2023-02-19T13:31:41.963Z,2.60
2023-02-19T13:34:39.811Z,3.55
2023-02-19T13:37:07.476Z,3.53
2023-02-19T13:39:34.626Z,2.65
2023-02-19T13:42:02.216Z,3.47
2023-02-19T13:44:41.686Z,2.72
2023-02-19T13:47:46.942Z,3.05
2023-02-19T13:50:29.056Z,6.28
2023-02-19T13:52:57.260Z,2.55
2023-02-19T13:55:52.627Z,4.07
2023-02-19T13:58:34.562Z,5.70
2023-02-19T14:01:11.869Z,5.22
2023-02-19T14:03:48.085Z,4.03
2023-02-19T14:06:14.833Z,7.63
2023-02-19T14:08:58.545Z,6.32
2023-02-19T14:11:45.002Z,9.30
2023-02-19T14:14:36.228Z,8.23
2023-02-19T14:17:08.954Z,10.07
2023-02-19T14:19:42.023Z,6.80
2023-02-19T14:22:51.526Z,5.68
2023-02-19T14:25:27.284Z,7.53
2023-02-19T14:28:21.710Z,7.32
2023-02-19T14:31:09.061Z,8.02
2023-02-19T14:33:40.266Z,5.40
2023-02-19T14:36:16.641Z,8.73
2023-02-19T14:38:51.924Z,7.22
2023-02-19T14:41:19.730Z,6.05
2023-02-19T14:43:50.752Z,5.28
2023-02-19T14:46:32.891Z,6.85
2023-02-19T14:49:07.912Z,9.90
2023-02-19T14:51:41.806Z,7.72
2023-02-19T14:54:40.721Z,10.63
2023-02-19T14:57:17.489Z,10.93
2023-02-19T14:59:55.205Z,15.60
2023-02-19T15:02:22.116Z,9.63
2023-02-19T15:04:48.731Z,7.88
2023-02-19T15:07:20.267Z,10.50
2023-02-19T15:09:53.408Z,5.10
2023-02-19T15:12:46.323Z,3.58
2023-02-19T15:15:21.040Z,6.30
2023-02-19T15:17:48.423Z,6.38
2023-02-19T15:20:19.635Z,4.38
2023-02-19T15:22:46.671Z,4.25
2023-02-19T15:25:19.985Z,4.45
2023-02-19T15:27:47.409Z,5.50
2023-02-19T15:30:28.515Z,2.97
2023-02-19T15:33:00.053Z,3.33
2023-02-19T15:35:28.778Z,4.32
2023-02-19T15:37:55.813Z,2.92
2023-02-19T15:40:30.077Z,2.08
2023-02-19T15:42:58.657Z,2.55
2023-02-19T15:45:30.821Z,1.88
2023-02-19T15:48:08.261Z,2.33
2023-02-19T15:50:39.364Z,2.50
2023-02-19T15:53:09.385Z,2.78
2023-02-19T15:55:43.331Z,2.85
2023-02-19T15:58:28.288Z,2.70
2023-02-19T16:00:59.627Z,3.40
2023-02-19T16:03:28.028Z,2.33
2023-02-19T16:06:15.964Z,2.88
2023-02-19T16:08:45.532Z,2.85
2023-02-19T16:11:24.210Z,4.63
2023-02-19T16:13:51.976Z,2.78
2023-02-19T16:16:34.964Z,2.58
2023-02-19T16:19:01.872Z,2.33
2023-02-19T16:21:32.485Z,3.20
2023-02-19T16:24:13.444Z,2.72
2023-02-19T16:26:43.156Z,5.25
2023-02-19T16:29:36.276Z,2.55
2023-02-19T16:32:08.013Z,2.15
2023-02-19T16:34:43.084Z,2.22
2023-02-19T16:37:35.159Z,2.47
2023-02-19T16:40:12.929Z,1.65
2023-02-19T16:42:53.123Z,4.18
2023-02-19T16:45:19.811Z,1.42
2023-02-19T16:47:51.194Z,1.55
2023-02-19T16:50:22.215Z,2.83
2023-02-19T16:52:55.784Z,4.38
2023-02-19T16:55:22.595Z,2.38
2023-02-19T16:57:51.788Z,1.88
2023-02-19T17:00:27.301Z,4.95
2023-02-19T17:02:57.119Z,3.60
2023-02-19T17:05:27.474Z,2.92
2023-02-19T17:07:54.114Z,3.08
2023-02-19T17:10:24.629Z,3.33
2023-02-19T17:12:54.875Z,3.40
2023-02-19T17:15:22.314Z,3.75
2023-02-19T17:17:48.952Z,3.70
2023-02-19T17:20:27.671Z,2.88
2023-02-19T17:22:57.602Z,3.10
2023-02-19T17:25:24.183Z,3.05
2023-02-19T17:27:52.716Z,4.25
2023-02-19T17:30:32.723Z,4.38
2023-02-19T17:32:59.673Z,5.50
2023-02-19T17:35:26.261Z,6.47
2023-02-19T17:37:53.531Z,5.28
2023-02-19T17:40:32.630Z,4.63
2023-02-19T17:43:00.052Z,5.43
2023-02-19T17:45:26.572Z,6.43
2023-02-19T17:47:53.387Z,4.88
2023-02-19T17:50:23.214Z,4.32
2023-02-19T17:52:49.818Z,4.70
2023-02-19T17:55:18.466Z,5.00
2023-02-19T17:57:46.008Z,5.88
2023-02-19T18:00:22.180Z,5.28
2023-02-19T18:02:51.750Z,4.60
2023-02-19T18:05:20.657Z,6.35
2023-02-19T18:07:48.285Z,4.30
2023-02-19T18:10:20.408Z,5.85
2023-02-19T18:12:47.919Z,5.40
2023-02-19T18:15:21.103Z,5.57
2023-02-19T18:17:47.905Z,4.45
2023-02-19T18:20:17.285Z,4.80
2023-02-19T18:22:43.885Z,3.50
2023-02-19T18:25:11.667Z,5.03
2023-02-19T18:27:40.898Z,4.95
2023-02-19T18:30:08.278Z,6.55
2023-02-19T18:32:35.502Z,7.13
2023-02-19T18:35:05.247Z,10.90
2023-02-19T18:37:32.980Z,8.80
2023-02-19T18:40:00.555Z,7.15
2023-02-19T18:42:27.787Z,4.78
2023-02-19T18:44:55.032Z,5.03
2023-02-19T18:47:22.705Z,5.18
2023-02-19T18:49:50.476Z,5.13
2023-02-19T18:52:20.378Z,4.78
2023-02-19T18:54:48.299Z,6.90
2023-02-19T18:57:15.593Z,7.05
2023-02-19T18:59:43.182Z,6.95
2023-02-19T19:02:10.225Z,5.18
2023-02-19T19:04:38.580Z,6.88
2023-02-19T19:07:06.526Z,6.65
2023-02-19T19:09:34.010Z,7.75
2023-02-19T19:12:01.032Z,6.25
2023-02-19T19:14:27.760Z,5.47
2023-02-19T19:16:54.617Z,6.35
2023-02-19T19:19:21.664Z,6.45
2023-02-19T19:21:53.610Z,5.72
2023-02-19T19:24:21.339Z,7.10
2023-02-19T19:26:48.796Z,5.20
2023-02-19T19:29:17.253Z,6.15
2023-02-19T19:31:44.812Z,8.10
2023-02-19T19:34:12.560Z,4.57
2023-02-19T19:36:39.086Z,7.93
2023-02-19T19:39:06.016Z,6.05
2023-02-19T19:41:32.594Z,6.20
2023-02-19T19:44:02.945Z,6.47
2023-02-19T19:46:29.650Z,6.07
2023-02-19T19:48:56.236Z,5.93
2023-02-19T19:51:22.801Z,8.90
2023-02-19T19:53:49.832Z,5.72
2023-02-19T19:56:17.613Z,7.90
2023-02-19T19:58:44.304Z,6.70
2023-02-19T20:01:11.097Z,5.88
2023-02-19T20:03:38.008Z,8.85
2023-02-19T20:06:07.688Z,8.13
2023-02-19T20:08:34.297Z,10.77
2023-02-19T20:11:00.904Z,9.32
2023-02-19T20:13:30.524Z,9.40
2023-02-19T20:15:57.125Z,8.10
2023-02-19T20:18:30.546Z,8.65
2023-02-19T20:20:57.166Z,10.43
2023-02-19T20:23:23.669Z,10.07
2023-02-19T20:25:50.271Z,11.25
2023-02-19T20:28:16.852Z,10.23
2023-02-19T20:30:43.903Z,7.22
2023-02-19T20:33:10.645Z,9.18
2023-02-19T20:35:37.310Z,7.57
2023-02-19T20:38:03.916Z,10.20
2023-02-19T20:40:32.243Z,8.07
2023-02-19T20:43:00.904Z,10.35
2023-02-19T20:45:28.275Z,12.48
2023-02-19T20:47:54.834Z,11.27
2023-02-19T20:50:23.325Z,8.93
2023-02-19T20:52:50.090Z,12.07
2023-02-19T20:55:16.786Z,12.38
2023-02-19T20:57:43.450Z,11.27
2023-02-19T21:00:11.226Z,11.57
2023-02-19T21:02:39.868Z,10.60
2023-02-19T21:05:06.690Z,11.68
2023-02-19T21:07:33.341Z,9.98
2023-02-19T21:09:59.944Z,10.45
2023-02-19T21:12:26.645Z,9.50
2023-02-19T21:14:53.265Z,10.88
2023-02-19T21:17:20.093Z,11.32
2023-02-19T21:19:49.889Z,7.85
2023-02-19T21:22:16.939Z,12.38
2023-02-19T21:24:43.690Z,9.77
2023-02-19T21:27:10.398Z,12.35
2023-02-19T21:29:36.901Z,12.90
2023-02-19T21:32:03.541Z,10.98
2023-02-19T21:34:30.494Z,11.13
2023-02-19T21:36:57.502Z,10.63
2023-02-19T21:39:25.688Z,10.23
2023-02-19T21:41:52.531Z,10.98
2023-02-19T21:44:21.041Z,11.00
2023-02-19T21:46:48.445Z,13.20
2023-02-19T21:49:15.114Z,9.07
2023-02-19T21:51:43.627Z,10.48
2023-02-19T21:54:15.959Z,10.25
2023-02-19T21:56:42.827Z,10.00
2023-02-19T21:59:09.801Z,15.60
2023-02-19T22:01:42.293Z,12.15
2023-02-19T22:04:12.845Z,8.70
2023-02-19T22:06:40.495Z,9.15
2023-02-19T22:09:08.240Z,9.43
2023-02-19T22:11:35.137Z,9.25
2023-02-19T22:14:02.128Z,6.57
2023-02-19T22:16:29.305Z,8.32
2023-02-19T22:18:57.841Z,11.48
2023-02-19T22:21:27.715Z,9.20
2023-02-19T22:23:55.472Z,10.82
2023-02-19T22:26:33.473Z,8.55
2023-02-19T22:29:04.148Z,7.75
2023-02-19T22:31:32.362Z,7.78
2023-02-19T22:33:59.030Z,11.40
2023-02-19T22:36:28.690Z,9.02
2023-02-19T22:38:55.258Z,10.80
2023-02-19T22:41:22.705Z,10.38
2023-02-19T22:43:49.712Z,8.63
2023-02-19T22:46:22.248Z,8.75
2023-02-19T22:48:49.093Z,11.05
2023-02-19T22:51:18.898Z,11.25
2023-02-19T22:53:53.036Z,10.15
2023-02-19T22:56:21.312Z,10.48
2023-02-19T22:58:48.342Z,9.15
2023-02-19T23:01:15.486Z,9.52
2023-02-19T23:03:50.809Z,9.88
2023-02-19T23:06:22.231Z,8.30
2023-02-19T23:08:48.745Z,10.02
2023-02-19T23:11:22.137Z,11.45
2023-02-19T23:13:48.719Z,11.30
2023-02-19T23:16:15.791Z,11.10
2023-02-19T23:18:42.576Z,10.93
2023-02-19T23:21:10.056Z,11.65
2023-02-19T23:23:36.667Z,10.27
2023-02-19T23:26:04.754Z,8.57
2023-02-19T23:28:31.278Z,12.48
2023-02-19T23:30:58.040Z,9.15
2023-02-19T23:33:24.649Z,11.02
2023-02-19T23:35:51.307Z,11.25
2023-02-19T23:38:18.201Z,13.70
2023-02-19T23:40:45.411Z,11.13
2023-02-19T23:43:12.004Z,10.68
2023-02-19T23:45:38.561Z,9.98
2023-02-19T23:48:05.147Z,10.80
2023-02-19T23:50:31.697Z,9.88
2023-02-19T23:52:59.336Z,9.82
2023-02-19T23:55:27.129Z,10.00
2023-02-19T23:57:53.813Z,14.07
